Aérodrome :
LOGIN :

S'inscrire | Disclaimer

   EN    FR    IT 

 










Légende :    VFR   VFR Marginal   IFR   IFR Intensif   IFR Très Intensif
Visi : 
Plafond : 
>= 8 km
>= 3000ft
5 à 8 km
1000 à 3000 ft
1500m à 5 km
500 à 1000 ft
800 à 1500m
200 à 500 ft
< 800m
< 200 ft
Symboles :   Orages  Brouillard  Fortes neiges  Fortes précipitations  Vent > 20 kt
SIGMETs :   Divers  Orages  Givrage  Turbulence  Onde Orograph.  Cendres Volcan.







- Altitude de l'aérodrome : 1906 ft
- Code IATA : INN


LOWI - Innsbruck

DERNIER METAR :
  • 120550Z 26009KT 210V280 9999 FEW020 BKN085 M02/M07 Q1022 R08/29//95 NOSIG

METARs EXPIRÉS :
  • 120520Z 26008KT 9999 FEW015 BKN085 M02/M06 Q1022 R08/29//95 NOSIG
  • 120450Z 25006KT 210V280 9999 FEW030 BKN080 M02/M07 Q1022 R08/29//95 NOSIG
  • 120420Z AUTO 27005KT 190V320 9999 FEW060 BKN070 M02/M06 Q1022
  • 120350Z AUTO 25010KT 9999 OVC070 M01/M05 Q1022
  • 120320Z AUTO 26007KT 9999 FEW022 BKN070 M01/M05 Q1022

TAF TAF LOWI
Valide du 12 à 06h jusqu'au 13 à 06h UTC


120515Z 1206/1306 27005KT 9999 FEW020 SCT080 TX01/1213Z TNM06/1306Z
TEMPO 1206/1210 27010KT BKN080
TEMPO 1302/1306 27008KT
Pas de NOTAMs connus pour ce terrain.



MET'MAP, la Météo Aéronautique d'un coup d'oeil ! - Copyright ORBIFLY Décembre 2007 - Disclaimer

ORBIFLY MET'MAP TEAM :

Programmation & Développement : Alexandra Zaïnal
Conception & Développement : Baudouin d'Aumeries
Co-Programmation & Développement : Marc-Olivier Méhu
Soutien technique & logistique : Manuel Goepfert

Contact : metmap@orbifly.com




SOURCES & CREDITS :

   NOAA